sensor_id;sensor_type;location;lat;lon;timestamp;temperature;humidity
23156;DHT22;11746;50.876;4.246;2022-07-29T00:02:23;19.70;94.50
23156;DHT22;11746;50.876;4.246;2022-07-29T00:04:49;19.50;94.70
23156;DHT22;11746;50.876;4.246;2022-07-29T00:07:16;19.40;95.10
23156;DHT22;11746;50.876;4.246;2022-07-29T00:09:44;19.50;95.00
23156;DHT22;11746;50.876;4.246;2022-07-29T00:12:10;19.50;94.90
23156;DHT22;11746;50.876;4.246;2022-07-29T00:14:38;19.50;94.90
23156;DHT22;11746;50.876;4.246;2022-07-29T00:17:04;19.50;95.10
23156;DHT22;11746;50.876;4.246;2022-07-29T00:19:30;19.50;95.00
23156;DHT22;11746;50.876;4.246;2022-07-29T00:21:58;19.50;95.10
23156;DHT22;11746;50.876;4.246;2022-07-29T00:24:24;19.40;95.20
23156;DHT22;11746;50.876;4.246;2022-07-29T00:26:52;19.40;95.40
23156;DHT22;11746;50.876;4.246;2022-07-29T00:29:18;19.40;95.50
23156;DHT22;11746;50.876;4.246;2022-07-29T00:31:46;19.30;95.70
23156;DHT22;11746;50.876;4.246;2022-07-29T00:34:12;19.30;95.90
23156;DHT22;11746;50.876;4.246;2022-07-29T00:36:57;19.30;96.00
23156;DHT22;11746;50.876;4.246;2022-07-29T00:39:27;19.10;96.40
23156;DHT22;11746;50.876;4.246;2022-07-29T00:41:53;19.20;96.40
23156;DHT22;11746;50.876;4.246;2022-07-29T00:44:19;19.20;96.50
23156;DHT22;11746;50.876;4.246;2022-07-29T00:46:47;19.20;96.70
23156;DHT22;11746;50.876;4.246;2022-07-29T00:49:13;19.10;96.70
23156;DHT22;11746;50.876;4.246;2022-07-29T00:51:43;19.20;96.70
23156;DHT22;11746;50.876;4.246;2022-07-29T00:54:09;19.20;96.80
23156;DHT22;11746;50.876;4.246;2022-07-29T00:56:35;19.10;97.40
23156;DHT22;11746;50.876;4.246;2022-07-29T00:59:01;19.00;97.30
23156;DHT22;11746;50.876;4.246;2022-07-29T01:01:29;19.00;97.40
23156;DHT22;11746;50.876;4.246;2022-07-29T01:03:56;19.10;97.40
23156;DHT22;11746;50.876;4.246;2022-07-29T01:06:21;19.00;97.60
23156;DHT22;11746;50.876;4.246;2022-07-29T01:08:48;18.90;97.90
23156;DHT22;11746;50.876;4.246;2022-07-29T01:11:15;18.90;98.00
23156;DHT22;11746;50.876;4.246;2022-07-29T01:13:45;19.00;97.90
23156;DHT22;11746;50.876;4.246;2022-07-29T01:16:21;19.10;97.60
23156;DHT22;11746;50.876;4.246;2022-07-29T01:19:00;19.20;97.70
23156;DHT22;11746;50.876;4.246;2022-07-29T01:24:14;19.10;97.80
23156;DHT22;11746;50.876;4.246;2022-07-29T01:32:09;19.00;98.10
23156;DHT22;11746;50.876;4.246;2022-07-29T01:39:57;19.00;98.70
23156;DHT22;11746;50.876;4.246;2022-07-29T01:42:27;19.00;98.70
23156;DHT22;11746;50.876;4.246;2022-07-29T01:47:43;19.00;98.70
23156;DHT22;11746;50.876;4.246;2022-07-29T01:50:12;19.00;98.70
23156;DHT22;11746;50.876;4.246;2022-07-29T01:52:49;18.70;99.20
23156;DHT22;11746;50.876;4.246;2022-07-29T01:55:20;18.60;99.60
23156;DHT22;11746;50.876;4.246;2022-07-29T01:57:49;18.60;99.90
23156;DHT22;11746;50.876;4.246;2022-07-29T02:00:16;18.60;99.90
23156;DHT22;11746;50.876;4.246;2022-07-29T02:02:45;18.60;99.90
23156;DHT22;11746;50.876;4.246;2022-07-29T02:05:15;18.40;99.90
23156;DHT22;11746;50.876;4.246;2022-07-29T02:07:44;18.40;99.90
23156;DHT22;11746;50.876;4.246;2022-07-29T02:10:12;18.30;99.90
23156;DHT22;11746;50.876;4.246;2022-07-29T02:12:39;18.30;99.90
23156;DHT22;11746;50.876;4.246;2022-07-29T02:15:07;18.20;99.90
23156;DHT22;11746;50.876;4.246;2022-07-29T02:17:39;18.20;99.90
23156;DHT22;11746;50.876;4.246;2022-07-29T02:20:07;18.20;99.90
23156;DHT22;11746;50.876;4.246;2022-07-29T02:22:37;18.10;99.90
23156;DHT22;11746;50.876;4.246;2022-07-29T02:25:04;18.10;99.90
23156;DHT22;11746;50.876;4.246;2022-07-29T02:27:34;18.10;99.90
23156;DHT22;11746;50.876;4.246;2022-07-29T02:30:04;18.10;99.90
23156;DHT22;11746;50.876;4.246;2022-07-29T02:32:32;18.10;99.90
23156;DHT22;11746;50.876;4.246;2022-07-29T02:35:01;18.20;99.90
23156;DHT22;11746;50.876;4.246;2022-07-29T02:37:30;18.30;99.90
23156;DHT22;11746;50.876;4.246;2022-07-29T02:39:57;18.30;99.90
23156;DHT22;11746;50.876;4.246;2022-07-29T02:42:24;18.30;99.90
23156;DHT22;11746;50.876;4.246;2022-07-29T02:44:54;18.30;99.90
23156;DHT22;11746;50.876;4.246;2022-07-29T02:50:14;18.20;99.90
23156;DHT22;11746;50.876;4.246;2022-07-29T02:52:47;18.20;99.90
23156;DHT22;11746;50.876;4.246;2022-07-29T02:58:08;18.00;99.90
23156;DHT22;11746;50.876;4.246;2022-07-29T03:00:37;18.10;99.90
23156;DHT22;11746;50.876;4.246;2022-07-29T03:03:08;18.00;99.90
23156;DHT22;11746;50.876;4.246;2022-07-29T03:05:34;18.00;99.90
23156;DHT22;11746;50.876;4.246;2022-07-29T03:08:05;18.00;99.90
23156;DHT22;11746;50.876;4.246;2022-07-29T03:10:35;17.80;99.90
23156;DHT22;11746;50.876;4.246;2022-07-29T03:13:02;17.90;99.90
23156;DHT22;11746;50.876;4.246;2022-07-29T03:15:30;17.80;99.90
23156;DHT22;11746;50.876;4.246;2022-07-29T03:17:56;17.60;99.90
23156;DHT22;11746;50.876;4.246;2022-07-29T03:20:23;17.60;99.90
23156;DHT22;11746;50.876;4.246;2022-07-29T03:22:50;17.60;99.90
23156;DHT22;11746;50.876;4.246;2022-07-29T03:25:18;17.50;99.90
23156;DHT22;11746;50.876;4.246;2022-07-29T03:27:45;17.40;99.90
23156;DHT22;11746;50.876;4.246;2022-07-29T03:30:12;17.40;99.90
23156;DHT22;11746;50.876;4.246;2022-07-29T03:32:40;17.30;99.90
23156;DHT22;11746;50.876;4.246;2022-07-29T03:35:07;17.30;99.90
23156;DHT22;11746;50.876;4.246;2022-07-29T03:37:34;17.20;99.90
23156;DHT22;11746;50.876;4.246;2022-07-29T03:40:07;17.30;99.90
23156;DHT22;11746;50.876;4.246;2022-07-29T03:42:36;17.40;99.90
23156;DHT22;11746;50.876;4.246;2022-07-29T03:45:12;17.40;99.90
23156;DHT22;11746;50.876;4.246;2022-07-29T03:47:45;17.40;99.90
23156;DHT22;11746;50.876;4.246;2022-07-29T03:50:14;17.30;99.90
23156;DHT22;11746;50.876;4.246;2022-07-29T03:52:41;17.30;99.90
23156;DHT22;11746;50.876;4.246;2022-07-29T03:55:07;17.30;99.90
23156;DHT22;11746;50.876;4.246;2022-07-29T03:57:35;17.20;99.90
23156;DHT22;11746;50.876;4.246;2022-07-29T04:00:06;17.10;99.90
23156;DHT22;11746;50.876;4.246;2022-07-29T04:02:32;17.00;99.90
23156;DHT22;11746;50.876;4.246;2022-07-29T04:05:02;17.10;99.90
23156;DHT22;11746;50.876;4.246;2022-07-29T04:07:27;17.20;99.90
23156;DHT22;11746;50.876;4.246;2022-07-29T04:09:56;17.40;99.90
23156;DHT22;11746;50.876;4.246;2022-07-29T04:12:22;17.40;99.90
23156;DHT22;11746;50.876;4.246;2022-07-29T04:14:53;17.40;99.90
23156;DHT22;11746;50.876;4.246;2022-07-29T04:17:21;17.40;99.90
23156;DHT22;11746;50.876;4.246;2022-07-29T04:19:49;17.40;99.90
23156;DHT22;11746;50.876;4.246;2022-07-29T04:22:15;17.40;99.90
23156;DHT22;11746;50.876;4.246;2022-07-29T04:24:41;17.30;99.90
23156;DHT22;11746;50.876;4.246;2022-07-29T04:27:08;17.40;99.90
23156;DHT22;11746;50.876;4.246;2022-07-29T04:29:34;17.40;99.90
23156;DHT22;11746;50.876;4.246;2022-07-29T04:32:00;17.30;99.90
23156;DHT22;11746;50.876;4.246;2022-07-29T04:34:26;17.30;99.90
23156;DHT22;11746;50.876;4.246;2022-07-29T04:36:52;17.40;99.90
23156;DHT22;11746;50.876;4.246;2022-07-29T04:39:17;17.40;99.90
23156;DHT22;11746;50.876;4.246;2022-07-29T04:41:45;17.40;99.90
23156;DHT22;11746;50.876;4.246;2022-07-29T04:44:13;17.40;99.90
23156;DHT22;11746;50.876;4.246;2022-07-29T04:46:39;17.40;99.90
23156;DHT22;11746;50.876;4.246;2022-07-29T04:49:05;17.60;99.90
23156;DHT22;11746;50.876;4.246;2022-07-29T04:51:30;17.60;99.90
23156;DHT22;11746;50.876;4.246;2022-07-29T04:53:56;17.60;99.90
23156;DHT22;11746;50.876;4.246;2022-07-29T04:56:22;17.70;99.90
23156;DHT22;11746;50.876;4.246;2022-07-29T04:58:49;17.70;99.90
23156;DHT22;11746;50.876;4.246;2022-07-29T05:01:15;17.80;99.90
23156;DHT22;11746;50.876;4.246;2022-07-29T05:03:41;17.70;99.90
23156;DHT22;11746;50.876;4.246;2022-07-29T05:06:09;17.80;99.90
23156;DHT22;11746;50.876;4.246;2022-07-29T05:08:37;17.80;99.90
23156;DHT22;11746;50.876;4.246;2022-07-29T05:11:03;17.70;99.90
23156;DHT22;11746;50.876;4.246;2022-07-29T05:13:29;17.70;99.90
23156;DHT22;11746;50.876;4.246;2022-07-29T05:15:57;17.70;99.90
23156;DHT22;11746;50.876;4.246;2022-07-29T05:18:26;17.70;99.90
23156;DHT22;11746;50.876;4.246;2022-07-29T05:20:54;17.80;99.90
23156;DHT22;11746;50.876;4.246;2022-07-29T05:23:20;17.80;99.90
23156;DHT22;11746;50.876;4.246;2022-07-29T05:25:46;17.80;99.90
23156;DHT22;11746;50.876;4.246;2022-07-29T05:28:15;17.90;99.90
23156;DHT22;11746;50.876;4.246;2022-07-29T05:30:41;18.00;99.90
23156;DHT22;11746;50.876;4.246;2022-07-29T05:33:07;18.10;99.90
23156;DHT22;11746;50.876;4.246;2022-07-29T05:35:33;18.10;99.90
23156;DHT22;11746;50.876;4.246;2022-07-29T05:38:03;18.10;99.90
23156;DHT22;11746;50.876;4.246;2022-07-29T05:40:29;18.30;99.90
23156;DHT22;11746;50.876;4.246;2022-07-29T05:42:55;18.40;99.90
23156;DHT22;11746;50.876;4.246;2022-07-29T05:45:21;18.30;99.90
23156;DHT22;11746;50.876;4.246;2022-07-29T05:47:50;18.30;99.90
23156;DHT22;11746;50.876;4.246;2022-07-29T05:50:18;18.20;99.90
23156;DHT22;11746;50.876;4.246;2022-07-29T05:52:46;18.20;99.90
23156;DHT22;11746;50.876;4.246;2022-07-29T05:55:14;18.20;99.90
23156;DHT22;11746;50.876;4.246;2022-07-29T05:57:44;18.30;99.90
23156;DHT22;11746;50.876;4.246;2022-07-29T06:00:11;18.20;99.90
23156;DHT22;11746;50.876;4.246;2022-07-29T06:02:37;18.20;99.90
23156;DHT22;11746;50.876;4.246;2022-07-29T06:05:05;18.20;99.90
23156;DHT22;11746;50.876;4.246;2022-07-29T06:07:31;18.30;99.90
23156;DHT22;11746;50.876;4.246;2022-07-29T06:09:57;18.20;99.90
23156;DHT22;11746;50.876;4.246;2022-07-29T06:12:23;18.20;99.90
23156;DHT22;11746;50.876;4.246;2022-07-29T06:14:49;18.30;99.90
23156;DHT22;11746;50.876;4.246;2022-07-29T06:17:16;18.40;99.90
23156;DHT22;11746;50.876;4.246;2022-07-29T06:19:41;18.60;99.90
23156;DHT22;11746;50.876;4.246;2022-07-29T06:22:07;18.60;99.90
23156;DHT22;11746;50.876;4.246;2022-07-29T06:24:36;18.60;99.90
23156;DHT22;11746;50.876;4.246;2022-07-29T06:27:02;18.70;99.90
23156;DHT22;11746;50.876;4.246;2022-07-29T06:29:28;18.50;99.90
23156;DHT22;11746;50.876;4.246;2022-07-29T06:31:58;18.40;99.90
23156;DHT22;11746;50.876;4.246;2022-07-29T06:34:24;18.40;99.90
23156;DHT22;11746;50.876;4.246;2022-07-29T06:36:50;18.50;99.90
23156;DHT22;11746;50.876;4.246;2022-07-29T06:39:17;18.50;99.90
23156;DHT22;11746;50.876;4.246;2022-07-29T06:41:49;18.60;99.90
23156;DHT22;11746;50.876;4.246;2022-07-29T06:44:18;18.70;99.90
23156;DHT22;11746;50.876;4.246;2022-07-29T06:46:46;18.70;99.90
23156;DHT22;11746;50.876;4.246;2022-07-29T06:49:14;18.90;99.90
23156;DHT22;11746;50.876;4.246;2022-07-29T06:51:40;19.00;99.90
23156;DHT22;11746;50.876;4.246;2022-07-29T06:54:08;19.10;99.90
23156;DHT22;11746;50.876;4.246;2022-07-29T06:56:35;19.20;99.90
23156;DHT22;11746;50.876;4.246;2022-07-29T06:59:05;19.30;99.90
23156;DHT22;11746;50.876;4.246;2022-07-29T07:01:32;19.50;99.90
23156;DHT22;11746;50.876;4.246;2022-07-29T07:03:58;19.60;99.90
23156;DHT22;11746;50.876;4.246;2022-07-29T07:06:23;19.40;99.90
23156;DHT22;11746;50.876;4.246;2022-07-29T07:08:49;19.50;99.90
23156;DHT22;11746;50.876;4.246;2022-07-29T07:11:17;19.80;99.90
23156;DHT22;11746;50.876;4.246;2022-07-29T07:13:43;19.90;99.90
23156;DHT22;11746;50.876;4.246;2022-07-29T07:16:09;20.00;99.90
23156;DHT22;11746;50.876;4.246;2022-07-29T07:18:35;20.10;99.90
23156;DHT22;11746;50.876;4.246;2022-07-29T07:21:00;20.10;99.90
23156;DHT22;11746;50.876;4.246;2022-07-29T07:23:30;20.00;99.90
23156;DHT22;11746;50.876;4.246;2022-07-29T07:25:56;20.10;99.90
23156;DHT22;11746;50.876;4.246;2022-07-29T07:28:23;19.80;99.90
23156;DHT22;11746;50.876;4.246;2022-07-29T07:30:51;19.60;99.90
23156;DHT22;11746;50.876;4.246;2022-07-29T07:33:20;19.70;99.90
23156;DHT22;11746;50.876;4.246;2022-07-29T07:35:46;19.80;99.90
23156;DHT22;11746;50.876;4.246;2022-07-29T07:38:15;20.10;99.90
23156;DHT22;11746;50.876;4.246;2022-07-29T07:40:43;20.20;99.90
23156;DHT22;11746;50.876;4.246;2022-07-29T07:43:14;20.30;99.90
23156;DHT22;11746;50.876;4.246;2022-07-29T07:45:39;20.50;99.90
23156;DHT22;11746;50.876;4.246;2022-07-29T07:48:08;20.60;99.90
23156;DHT22;11746;50.876;4.246;2022-07-29T07:50:35;20.60;99.90
23156;DHT22;11746;50.876;4.246;2022-07-29T07:53:02;20.30;99.90
23156;DHT22;11746;50.876;4.246;2022-07-29T07:55:27;20.40;99.90
23156;DHT22;11746;50.876;4.246;2022-07-29T07:57:54;20.40;99.90
23156;DHT22;11746;50.876;4.246;2022-07-29T08:00:21;20.20;99.90
23156;DHT22;11746;50.876;4.246;2022-07-29T08:02:47;20.30;99.90
23156;DHT22;11746;50.876;4.246;2022-07-29T08:05:13;20.40;99.90
23156;DHT22;11746;50.876;4.246;2022-07-29T08:07:45;20.30;99.90
23156;DHT22;11746;50.876;4.246;2022-07-29T08:10:12;20.50;99.90
23156;DHT22;11746;50.876;4.246;2022-07-29T08:12:38;20.50;99.90
23156;DHT22;11746;50.876;4.246;2022-07-29T08:15:04;20.50;99.90
23156;DHT22;11746;50.876;4.246;2022-07-29T08:17:33;20.60;99.90
23156;DHT22;11746;50.876;4.246;2022-07-29T08:19:59;20.60;99.90
23156;DHT22;11746;50.876;4.246;2022-07-29T08:22:25;20.70;99.90
23156;DHT22;11746;50.876;4.246;2022-07-29T08:24:51;20.80;99.90
23156;DHT22;11746;50.876;4.246;2022-07-29T08:27:21;21.00;99.90
23156;DHT22;11746;50.876;4.246;2022-07-29T08:29:51;21.00;99.90
23156;DHT22;11746;50.876;4.246;2022-07-29T08:32:17;21.00;99.90
23156;DHT22;11746;50.876;4.246;2022-07-29T08:34:45;21.00;99.90
23156;DHT22;11746;50.876;4.246;2022-07-29T08:37:14;21.00;99.90
23156;DHT22;11746;50.876;4.246;2022-07-29T08:39:42;21.10;99.90
23156;DHT22;11746;50.876;4.246;2022-07-29T08:42:10;21.20;99.90
23156;DHT22;11746;50.876;4.246;2022-07-29T08:44:36;21.40;99.90
23156;DHT22;11746;50.876;4.246;2022-07-29T08:47:02;21.50;99.90
23156;DHT22;11746;50.876;4.246;2022-07-29T08:49:28;21.50;99.90
23156;DHT22;11746;50.876;4.246;2022-07-29T08:51:55;21.50;99.90
23156;DHT22;11746;50.876;4.246;2022-07-29T08:54:23;21.60;99.90
23156;DHT22;11746;50.876;4.246;2022-07-29T08:56:50;21.80;99.90
23156;DHT22;11746;50.876;4.246;2022-07-29T08:59:20;21.70;99.90
23156;DHT22;11746;50.876;4.246;2022-07-29T09:01:46;21.80;99.90
23156;DHT22;11746;50.876;4.246;2022-07-29T09:04:13;21.90;99.90
23156;DHT22;11746;50.876;4.246;2022-07-29T09:06:46;21.90;99.90
23156;DHT22;11746;50.876;4.246;2022-07-29T09:09:16;22.10;99.90
23156;DHT22;11746;50.876;4.246;2022-07-29T09:11:45;22.20;99.90
23156;DHT22;11746;50.876;4.246;2022-07-29T09:14:12;22.30;99.90
23156;DHT22;11746;50.876;4.246;2022-07-29T09:16:46;22.30;99.90
23156;DHT22;11746;50.876;4.246;2022-07-29T09:21:49;22.40;99.90
23156;DHT22;11746;50.876;4.246;2022-07-29T09:24:42;22.50;99.90
23156;DHT22;11746;50.876;4.246;2022-07-29T09:27:19;22.60;99.60
23156;DHT22;11746;50.876;4.246;2022-07-29T09:30:04;22.70;98.70
23156;DHT22;11746;50.876;4.246;2022-07-29T09:32:55;22.80;99.50
23156;DHT22;11746;50.876;4.246;2022-07-29T09:35:23;22.90;98.70
23156;DHT22;11746;50.876;4.246;2022-07-29T09:37:49;22.80;98.80
23156;DHT22;11746;50.876;4.246;2022-07-29T09:40:18;22.90;99.00
23156;DHT22;11746;50.876;4.246;2022-07-29T09:42:46;23.10;98.80
23156;DHT22;11746;50.876;4.246;2022-07-29T09:45:29;23.10;98.20
23156;DHT22;11746;50.876;4.246;2022-07-29T09:47:55;23.00;98.40
23156;DHT22;11746;50.876;4.246;2022-07-29T09:50:22;23.30;98.00
23156;DHT22;11746;50.876;4.246;2022-07-29T09:53:05;23.40;98.10
23156;DHT22;11746;50.876;4.246;2022-07-29T09:55:40;23.40;96.60
23156;DHT22;11746;50.876;4.246;2022-07-29T10:00:44;23.20;97.30
23156;DHT22;11746;50.876;4.246;2022-07-29T10:03:11;23.30;97.50
23156;DHT22;11746;50.876;4.246;2022-07-29T10:05:40;23.60;96.80
23156;DHT22;11746;50.876;4.246;2022-07-29T10:08:07;23.80;95.70
23156;DHT22;11746;50.876;4.246;2022-07-29T10:10:37;24.00;95.10
23156;DHT22;11746;50.876;4.246;2022-07-29T10:13:07;24.00;95.40
23156;DHT22;11746;50.876;4.246;2022-07-29T10:15:38;24.00;95.70
23156;DHT22;11746;50.876;4.246;2022-07-29T10:18:07;23.90;95.20
23156;DHT22;11746;50.876;4.246;2022-07-29T10:20:34;23.90;95.20
23156;DHT22;11746;50.876;4.246;2022-07-29T10:23:05;23.80;94.30
23156;DHT22;11746;50.876;4.246;2022-07-29T10:25:33;23.90;95.30
23156;DHT22;11746;50.876;4.246;2022-07-29T10:27:58;24.10;95.00
23156;DHT22;11746;50.876;4.246;2022-07-29T10:30:25;24.30;94.10
23156;DHT22;11746;50.876;4.246;2022-07-29T10:36:07;24.30;94.10
23156;DHT22;11746;50.876;4.246;2022-07-29T10:38:44;24.40;93.70
23156;DHT22;11746;50.876;4.246;2022-07-29T10:44:06;24.80;91.70
23156;DHT22;11746;50.876;4.246;2022-07-29T10:46:39;24.60;92.80
23156;DHT22;11746;50.876;4.246;2022-07-29T10:52:06;24.40;93.10
23156;DHT22;11746;50.876;4.246;2022-07-29T10:54:39;24.80;93.10
23156;DHT22;11746;50.876;4.246;2022-07-29T10:59:52;24.80;91.70
23156;DHT22;11746;50.876;4.246;2022-07-29T11:05:17;25.10;91.70
23156;DHT22;11746;50.876;4.246;2022-07-29T11:10:46;25.20;91.10
23156;DHT22;11746;50.876;4.246;2022-07-29T11:13:12;25.20;90.30
23156;DHT22;11746;50.876;4.246;2022-07-29T11:16:07;25.70;89.90
23156;DHT22;11746;50.876;4.246;2022-07-29T11:18:36;25.90;89.90
23156;DHT22;11746;50.876;4.246;2022-07-29T11:21:02;26.20;88.30
23156;DHT22;11746;50.876;4.246;2022-07-29T11:23:33;25.90;86.30
23156;DHT22;11746;50.876;4.246;2022-07-29T11:26:13;25.80;87.50
23156;DHT22;11746;50.876;4.246;2022-07-29T11:28:49;25.50;88.30
23156;DHT22;11746;50.876;4.246;2022-07-29T11:31:39;25.30;88.90
23156;DHT22;11746;50.876;4.246;2022-07-29T11:34:31;25.40;88.00
23156;DHT22;11746;50.876;4.246;2022-07-29T11:39:35;25.60;87.50
23156;DHT22;11746;50.876;4.246;2022-07-29T11:44:54;26.00;86.20
23156;DHT22;11746;50.876;4.246;2022-07-29T11:47:22;26.00;85.90
23156;DHT22;11746;50.876;4.246;2022-07-29T11:49:50;25.90;85.60
23156;DHT22;11746;50.876;4.246;2022-07-29T11:52:19;25.80;85.80
23156;DHT22;11746;50.876;4.246;2022-07-29T11:54:48;25.70;86.20
23156;DHT22;11746;50.876;4.246;2022-07-29T11:57:20;25.70;86.00
23156;DHT22;11746;50.876;4.246;2022-07-29T11:59:49;26.10;84.20
23156;DHT22;11746;50.876;4.246;2022-07-29T12:02:15;26.40;85.30
23156;DHT22;11746;50.876;4.246;2022-07-29T12:04:57;26.60;83.50
23156;DHT22;11746;50.876;4.246;2022-07-29T12:07:29;27.00;81.40
23156;DHT22;11746;50.876;4.246;2022-07-29T12:09:54;26.70;78.80
23156;DHT22;11746;50.876;4.246;2022-07-29T12:12:21;26.70;80.60
23156;DHT22;11746;50.876;4.246;2022-07-29T12:14:47;27.00;81.50
23156;DHT22;11746;50.876;4.246;2022-07-29T12:17:26;27.20;79.90
23156;DHT22;11746;50.876;4.246;2022-07-29T12:19:55;27.10;78.10
23156;DHT22;11746;50.876;4.246;2022-07-29T12:22:36;27.00;78.20
23156;DHT22;11746;50.876;4.246;2022-07-29T12:25:13;27.20;78.40
23156;DHT22;11746;50.876;4.246;2022-07-29T12:27:44;27.40;79.00
23156;DHT22;11746;50.876;4.246;2022-07-29T12:30:14;27.70;77.40
23156;DHT22;11746;50.876;4.246;2022-07-29T12:35:16;28.10;76.20
23156;DHT22;11746;50.876;4.246;2022-07-29T12:37:46;28.50;76.30
23156;DHT22;11746;50.876;4.246;2022-07-29T12:40:16;28.70;75.80
23156;DHT22;11746;50.876;4.246;2022-07-29T12:45:33;28.80;73.60
23156;DHT22;11746;50.876;4.246;2022-07-29T12:47:59;28.40;75.20
23156;DHT22;11746;50.876;4.246;2022-07-29T12:50:26;27.90;75.10
23156;DHT22;11746;50.876;4.246;2022-07-29T12:52:52;27.50;76.10
23156;DHT22;11746;50.876;4.246;2022-07-29T12:58:09;27.10;75.80
23156;DHT22;11746;50.876;4.246;2022-07-29T13:00:35;26.90;76.80
23156;DHT22;11746;50.876;4.246;2022-07-29T13:03:00;26.80;76.20
23156;DHT22;11746;50.876;4.246;2022-07-29T13:05:43;26.60;76.50
23156;DHT22;11746;50.876;4.246;2022-07-29T13:08:17;26.60;76.70
23156;DHT22;11746;50.876;4.246;2022-07-29T13:10:48;26.40;77.30
23156;DHT22;11746;50.876;4.246;2022-07-29T13:13:15;26.60;78.00
23156;DHT22;11746;50.876;4.246;2022-07-29T13:15:43;26.20;77.20
23156;DHT22;11746;50.876;4.246;2022-07-29T13:18:34;26.10;77.80
23156;DHT22;11746;50.876;4.246;2022-07-29T13:21:15;25.90;78.00
23156;DHT22;11746;50.876;4.246;2022-07-29T13:23:41;26.00;78.80
23156;DHT22;11746;50.876;4.246;2022-07-29T13:26:08;26.30;79.70
23156;DHT22;11746;50.876;4.246;2022-07-29T13:28:37;26.20;77.30
23156;DHT22;11746;50.876;4.246;2022-07-29T13:31:04;26.10;77.80
23156;DHT22;11746;50.876;4.246;2022-07-29T13:33:33;26.30;76.80
23156;DHT22;11746;50.876;4.246;2022-07-29T13:36:01;26.90;78.00
23156;DHT22;11746;50.876;4.246;2022-07-29T13:38:27;27.40;75.30
23156;DHT22;11746;50.876;4.246;2022-07-29T13:40:53;28.00;75.60
23156;DHT22;11746;50.876;4.246;2022-07-29T13:43:19;28.40;73.60
23156;DHT22;11746;50.876;4.246;2022-07-29T13:45:46;28.40;71.30
23156;DHT22;11746;50.876;4.246;2022-07-29T13:48:12;28.30;71.00
23156;DHT22;11746;50.876;4.246;2022-07-29T13:50:40;28.00;72.70
23156;DHT22;11746;50.876;4.246;2022-07-29T13:53:06;27.90;71.50
23156;DHT22;11746;50.876;4.246;2022-07-29T13:55:36;27.90;72.20
23156;DHT22;11746;50.876;4.246;2022-07-29T13:58:01;27.60;72.70
23156;DHT22;11746;50.876;4.246;2022-07-29T14:00:27;27.50;74.00
23156;DHT22;11746;50.876;4.246;2022-07-29T14:02:53;27.70;71.90
23156;DHT22;11746;50.876;4.246;2022-07-29T14:05:21;27.90;71.60
23156;DHT22;11746;50.876;4.246;2022-07-29T14:07:47;28.10;69.60
23156;DHT22;11746;50.876;4.246;2022-07-29T14:10:12;28.30;68.30
23156;DHT22;11746;50.876;4.246;2022-07-29T14:12:40;28.60;69.00
23156;DHT22;11746;50.876;4.246;2022-07-29T14:15:10;28.20;69.20
23156;DHT22;11746;50.876;4.246;2022-07-29T14:17:36;27.90;69.40
23156;DHT22;11746;50.876;4.246;2022-07-29T14:20:02;28.40;70.50
23156;DHT22;11746;50.876;4.246;2022-07-29T14:22:33;28.90;68.10
23156;DHT22;11746;50.876;4.246;2022-07-29T14:24:59;28.90;67.00
23156;DHT22;11746;50.876;4.246;2022-07-29T14:27:24;28.40;67.50
23156;DHT22;11746;50.876;4.246;2022-07-29T14:29:52;27.90;68.40
23156;DHT22;11746;50.876;4.246;2022-07-29T14:32:21;27.90;67.30
23156;DHT22;11746;50.876;4.246;2022-07-29T14:34:47;28.00;69.00
23156;DHT22;11746;50.876;4.246;2022-07-29T14:37:12;27.70;68.80
23156;DHT22;11746;50.876;4.246;2022-07-29T14:39:38;27.80;69.40
23156;DHT22;11746;50.876;4.246;2022-07-29T14:42:06;28.20;69.60
23156;DHT22;11746;50.876;4.246;2022-07-29T14:44:35;28.60;69.40
23156;DHT22;11746;50.876;4.246;2022-07-29T14:47:01;28.40;69.70
23156;DHT22;11746;50.876;4.246;2022-07-29T14:49:29;28.10;69.80
23156;DHT22;11746;50.876;4.246;2022-07-29T14:51:55;28.40;70.00
23156;DHT22;11746;50.876;4.246;2022-07-29T14:54:21;28.60;68.70
23156;DHT22;11746;50.876;4.246;2022-07-29T14:56:51;28.20;69.80
23156;DHT22;11746;50.876;4.246;2022-07-29T14:59:22;28.00;70.70
23156;DHT22;11746;50.876;4.246;2022-07-29T15:01:48;27.60;71.60
23156;DHT22;11746;50.876;4.246;2022-07-29T15:04:15;27.70;71.40
23156;DHT22;11746;50.876;4.246;2022-07-29T15:06:41;28.10;70.30
23156;DHT22;11746;50.876;4.246;2022-07-29T15:09:10;28.50;69.70
23156;DHT22;11746;50.876;4.246;2022-07-29T15:11:36;28.60;71.00
23156;DHT22;11746;50.876;4.246;2022-07-29T15:14:02;28.90;68.90
23156;DHT22;11746;50.876;4.246;2022-07-29T15:16:28;29.00;68.30
23156;DHT22;11746;50.876;4.246;2022-07-29T15:18:57;28.80;68.70
23156;DHT22;11746;50.876;4.246;2022-07-29T15:21:23;29.20;69.00
23156;DHT22;11746;50.876;4.246;2022-07-29T15:23:49;29.50;67.10
23156;DHT22;11746;50.876;4.246;2022-07-29T15:26:17;29.60;65.70
23156;DHT22;11746;50.876;4.246;2022-07-29T15:28:46;29.90;65.50
23156;DHT22;11746;50.876;4.246;2022-07-29T15:31:14;30.30;65.50
23156;DHT22;11746;50.876;4.246;2022-07-29T15:33:40;30.50;64.90
23156;DHT22;11746;50.876;4.246;2022-07-29T15:36:06;30.70;64.00
23156;DHT22;11746;50.876;4.246;2022-07-29T15:38:32;31.00;63.00
23156;DHT22;11746;50.876;4.246;2022-07-29T15:40:58;30.90;61.80
23156;DHT22;11746;50.876;4.246;2022-07-29T15:43:25;30.60;61.60
23156;DHT22;11746;50.876;4.246;2022-07-29T15:45:53;30.20;63.20
23156;DHT22;11746;50.876;4.246;2022-07-29T15:48:40;29.50;64.00
23156;DHT22;11746;50.876;4.246;2022-07-29T15:51:06;28.90;62.60
23156;DHT22;11746;50.876;4.246;2022-07-29T15:53:32;29.20;63.90
23156;DHT22;11746;50.876;4.246;2022-07-29T15:55:59;30.00;64.00
23156;DHT22;11746;50.876;4.246;2022-07-29T15:58:28;30.60;62.50
23156;DHT22;11746;50.876;4.246;2022-07-29T16:00:54;30.90;63.50
23156;DHT22;11746;50.876;4.246;2022-07-29T16:03:20;31.20;62.10
23156;DHT22;11746;50.876;4.246;2022-07-29T16:05:47;31.30;62.10
23156;DHT22;11746;50.876;4.246;2022-07-29T16:08:13;31.30;61.80
23156;DHT22;11746;50.876;4.246;2022-07-29T16:10:38;30.40;63.30
23156;DHT22;11746;50.876;4.246;2022-07-29T16:13:06;29.60;64.30
23156;DHT22;11746;50.876;4.246;2022-07-29T16:15:32;29.10;65.00
23156;DHT22;11746;50.876;4.246;2022-07-29T16:17:58;28.70;65.70
23156;DHT22;11746;50.876;4.246;2022-07-29T16:20:29;28.70;65.80
23156;DHT22;11746;50.876;4.246;2022-07-29T16:22:59;28.20;66.40
23156;DHT22;11746;50.876;4.246;2022-07-29T16:25:25;28.20;67.10
23156;DHT22;11746;50.876;4.246;2022-07-29T16:27:51;28.80;66.90
23156;DHT22;11746;50.876;4.246;2022-07-29T16:30:17;29.60;66.80
23156;DHT22;11746;50.876;4.246;2022-07-29T16:32:45;30.00;66.00
23156;DHT22;11746;50.876;4.246;2022-07-29T16:35:13;29.50;65.60
23156;DHT22;11746;50.876;4.246;2022-07-29T16:37:41;29.10;66.40